Time;durP1;ratioP1;P1;durP2;ratioP2;P2;SDS_P1;SDS_P2;PMS_P1;PMS_P2;Temp;Humidity;BMP_temperature;BMP_pressure;BME280_temperature;BME280_humidity;BME280_pressure;Samples;Min_cycle;Max_cycle;Signal;HPM_P1;HPM_P2
2021/09/12 00:02:08;;;;;;;9.50;5.43;;;;;;;;;;4982286;28;20693;-75
2021/09/12 00:04:36;;;;;;;9.27;5.37;;;;;;;;;;4980881;28;20236;-76
2021/09/12 00:07:04;;;;;;;9.27;5.90;;;;;;;;;;4980358;28;20239;-75
2021/09/12 00:09:31;;;;;;;9.40;5.10;;;;;;;;;;4984996;28;20320;-75
2021/09/12 00:11:58;;;;;;;8.70;5.57;;;;;;;;;;4986318;28;20295;-75
2021/09/12 00:14:25;;;;;;;12.07;5.80;;;;;;;;;;4982441;28;20761;-75
2021/09/12 00:16:53;;;;;;;9.33;5.23;;;;;;;;;;4975912;28;20651;-75
2021/09/12 00:19:20;;;;;;;10.57;5.60;;;;;;;;;;4982440;28;20267;-75
2021/09/12 00:21:48;;;;;;;10.73;5.83;;;;;;;;;;4983684;28;20219;-75
2021/09/12 00:24:15;;;;;;;10.97;5.70;;;;;;;;;;4982832;28;20601;-75
2021/09/12 00:26:43;;;;;;;9.70;4.80;;;;;;;;;;4978382;28;20682;-76
2021/09/12 00:29:10;;;;;;;9.33;5.67;;;;;;;;;;4981402;28;20288;-75
2021/09/12 00:31:37;;;;;;;8.30;5.47;;;;;;;;;;4981223;28;20205;-75
2021/09/12 00:34:05;;;;;;;11.93;5.83;;;;;;;;;;4984529;28;20253;-75
2021/09/12 00:36:32;;;;;;;17.47;5.63;;;;;;;;;;4976596;28;20304;-76
2021/09/12 00:39:00;;;;;;;13.13;5.67;;;;;;;;;;4978704;28;20845;-75
2021/09/12 00:41:27;;;;;;;10.10;5.40;;;;;;;;;;4983101;28;20216;-75
2021/09/12 00:43:55;;;;;;;14.73;5.77;;;;;;;;;;4979002;28;20203;-75
2021/09/12 00:46:22;;;;;;;17.83;5.33;;;;;;;;;;4975048;28;20223;-74
2021/09/12 00:48:49;;;;;;;14.13;5.90;;;;;;;;;;4974892;28;20292;-74
2021/09/12 00:51:16;;;;;;;7.83;5.43;;;;;;;;;;4979714;28;20590;-75
2021/09/12 00:53:45;;;;;;;8.20;5.40;;;;;;;;;;4973984;28;20251;-74
2021/09/12 00:56:13;;;;;;;7.93;5.23;;;;;;;;;;4974624;28;20213;-74
2021/09/12 00:58:41;;;;;;;13.97;5.80;;;;;;;;;;4979276;28;20224;-74
2021/09/12 01:01:09;;;;;;;18.13;5.67;;;;;;;;;;4976246;28;20208;-75
2021/09/12 01:03:36;;;;;;;18.23;5.27;;;;;;;;;;4974285;28;20209;-74
2021/09/12 01:06:03;;;;;;;20.43;5.90;;;;;;;;;;4978665;28;20267;-75
2021/09/12 01:08:31;;;;;;;11.43;5.60;;;;;;;;;;4975779;28;20201;-74
2021/09/12 01:10:58;;;;;;;11.13;5.13;;;;;;;;;;4976256;28;20217;-75
2021/09/12 01:13:27;;;;;;;10.30;5.20;;;;;;;;;;4974626;28;20307;-75
2021/09/12 01:15:54;;;;;;;13.53;5.60;;;;;;;;;;4973832;28;20319;-75
2021/09/12 01:18:21;;;;;;;9.57;5.07;;;;;;;;;;4974376;28;20324;-75
2021/09/12 01:20:48;;;;;;;9.23;5.10;;;;;;;;;;4980729;28;20212;-75
2021/09/12 01:23:15;;;;;;;11.63;5.77;;;;;;;;;;4975577;28;20288;-76
2021/09/12 01:25:44;;;;;;;14.87;5.50;;;;;;;;;;4976231;28;20252;-76
2021/09/12 01:28:12;;;;;;;9.07;5.40;;;;;;;;;;4977318;28;20276;-76
2021/09/12 01:30:39;;;;;;;15.33;5.80;;;;;;;;;;4984103;28;20289;-77
2021/09/12 01:33:06;;;;;;;7.73;5.23;;;;;;;;;;4977968;28;20206;-76
2021/09/12 01:35:34;;;;;;;12.83;5.63;;;;;;;;;;4981335;28;20252;-76
2021/09/12 01:38:01;;;;;;;12.50;5.27;;;;;;;;;;4978226;28;20234;-76
2021/09/12 01:40:28;;;;;;;9.70;5.47;;;;;;;;;;4981714;28;20298;-76
2021/09/12 01:42:59;;;;;;;8.63;5.30;;;;;;;;;;4980639;28;20205;-76
2021/09/12 01:45:26;;;;;;;9.13;5.03;;;;;;;;;;4984264;28;20233;-75
2021/09/12 01:47:59;;;;;;;10.43;5.43;;;;;;;;;;4973648;28;20321;-75
2021/09/12 01:50:26;;;;;;;12.50;5.90;;;;;;;;;;4973635;28;20208;-76
2021/09/12 01:52:53;;;;;;;11.87;5.17;;;;;;;;;;4982614;28;20205;-76
2021/09/12 01:55:21;;;;;;;10.07;5.37;;;;;;;;;;4978613;28;20235;-76
2021/09/12 01:57:48;;;;;;;13.67;6.07;;;;;;;;;;4973062;28;20201;-76
2021/09/12 02:00:17;;;;;;;13.80;6.17;;;;;;;;;;4973606;28;20300;-76
2021/09/12 02:02:44;;;;;;;10.40;4.93;;;;;;;;;;4972632;28;20710;-76
2021/09/12 02:05:12;;;;;;;8.90;5.43;;;;;;;;;;4975241;28;21323;-76
2021/09/12 02:07:39;;;;;;;14.17;5.83;;;;;;;;;;4975096;28;20215;-76
2021/09/12 02:10:07;;;;;;;10.97;5.40;;;;;;;;;;4974645;28;20208;-75
2021/09/12 02:12:34;;;;;;;8.47;5.20;;;;;;;;;;4971622;28;20616;-76
2021/09/12 02:15:01;;;;;;;12.03;5.63;;;;;;;;;;4974443;28;20313;-76
2021/09/12 02:17:30;;;;;;;10.83;5.33;;;;;;;;;;4971883;28;20216;-76
2021/09/12 02:19:57;;;;;;;10.70;5.77;;;;;;;;;;4972881;28;20265;-76
2021/09/12 02:22:24;;;;;;;17.53;5.93;;;;;;;;;;4971754;28;20408;-76
2021/09/12 02:24:51;;;;;;;10.30;5.60;;;;;;;;;;4974521;28;20260;-76
2021/09/12 02:27:18;;;;;;;8.40;5.47;;;;;;;;;;4975121;28;20223;-75
2021/09/12 02:29:45;;;;;;;9.17;5.73;;;;;;;;;;4977264;28;20287;-76
2021/09/12 02:32:14;;;;;;;11.13;5.47;;;;;;;;;;4973798;28;20210;-75
2021/09/12 02:34:43;;;;;;;10.67;5.67;;;;;;;;;;4973397;28;20234;-76
2021/09/12 02:37:10;;;;;;;9.43;5.23;;;;;;;;;;4976343;28;20213;-76
2021/09/12 02:39:37;;;;;;;12.77;5.60;;;;;;;;;;4978092;28;20320;-76
2021/09/12 02:42:04;;;;;;;9.30;5.33;;;;;;;;;;4979964;28;20237;-76
2021/09/12 02:44:31;;;;;;;7.40;4.70;;;;;;;;;;4979200;28;20225;-76
2021/09/12 02:46:59;;;;;;;12.37;5.47;;;;;;;;;;4978894;28;20207;-76
2021/09/12 02:49:26;;;;;;;10.37;5.77;;;;;;;;;;4980438;28;20205;-76
2021/09/12 02:51:54;;;;;;;7.83;5.37;;;;;;;;;;4974504;28;20292;-76
2021/09/12 02:54:21;;;;;;;9.07;5.50;;;;;;;;;;4980526;28;20312;-76
2021/09/12 02:56:49;;;;;;;12.67;5.80;;;;;;;;;;4981416;28;20201;-76
2021/09/12 02:59:16;;;;;;;10.13;4.83;;;;;;;;;;4983090;28;20716;-76
2021/09/12 03:01:43;;;;;;;9.97;5.13;;;;;;;;;;4982871;28;20209;-76
2021/09/12 03:04:10;;;;;;;8.07;5.30;;;;;;;;;;4984357;28;20237;-74
2021/09/12 03:06:37;;;;;;;10.43;5.13;;;;;;;;;;4986036;28;20219;-76
2021/09/12 03:09:06;;;;;;;14.13;5.37;;;;;;;;;;4984960;28;20209;-76
2021/09/12 03:11:33;;;;;;;12.17;5.03;;;;;;;;;;4983865;28;20213;-76
2021/09/12 03:14:00;;;;;;;8.33;4.90;;;;;;;;;;4983361;28;20232;-76
2021/09/12 03:16:27;;;;;;;12.20;5.03;;;;;;;;;;4983784;28;20837;-76
2021/09/12 03:18:55;;;;;;;10.53;5.20;;;;;;;;;;4976986;28;20233;-76
2021/09/12 03:21:22;;;;;;;7.43;5.23;;;;;;;;;;4981625;28;20302;-76
2021/09/12 03:23:49;;;;;;;9.63;4.77;;;;;;;;;;4980452;28;20565;-76
2021/09/12 03:26:18;;;;;;;8.20;5.13;;;;;;;;;;4982223;28;20205;-76
2021/09/12 03:28:45;;;;;;;11.97;5.13;;;;;;;;;;4982239;28;20579;-76
2021/09/12 03:31:12;;;;;;;7.73;4.83;;;;;;;;;;4981715;28;20296;-76
2021/09/12 03:33:39;;;;;;;9.93;5.27;;;;;;;;;;4981587;28;20304;-76
2021/09/12 03:36:07;;;;;;;11.87;5.53;;;;;;;;;;4981163;28;20306;-76
2021/09/12 03:38:34;;;;;;;11.93;5.57;;;;;;;;;;4984480;28;20283;-76
2021/09/12 03:41:01;;;;;;;8.90;5.43;;;;;;;;;;4983865;28;20201;-76
2021/09/12 03:43:29;;;;;;;8.40;4.63;;;;;;;;;;4978169;28;20213;-74
2021/09/12 03:45:57;;;;;;;7.83;4.97;;;;;;;;;;4985390;28;20231;-75
2021/09/12 03:48:24;;;;;;;11.60;5.23;;;;;;;;;;4977965;28;20293;-75
2021/09/12 03:50:51;;;;;;;11.50;4.90;;;;;;;;;;4983640;28;20211;-75
2021/09/12 03:53:19;;;;;;;7.07;4.47;;;;;;;;;;4984651;28;20659;-75
2021/09/12 03:55:47;;;;;;;8.93;4.93;;;;;;;;;;4985239;28;20312;-75
2021/09/12 03:58:14;;;;;;;13.73;5.33;;;;;;;;;;4983156;28;20300;-75
2021/09/12 04:00:43;;;;;;;10.43;4.40;;;;;;;;;;4982080;28;20230;-75
2021/09/12 04:03:10;;;;;;;6.53;4.30;;;;;;;;;;4984935;28;20209;-75
2021/09/12 04:05:37;;;;;;;10.20;5.73;;;;;;;;;;4984819;28;20225;-75
2021/09/12 04:08:04;;;;;;;11.17;4.60;;;;;;;;;;4986231;28;20288;-75
2021/09/12 04:10:31;;;;;;;9.10;4.53;;;;;;;;;;4983204;28;20289;-76
2021/09/12 04:12:59;;;;;;;8.13;4.57;;;;;;;;;;4982581;28;20227;-75
2021/09/12 04:15:26;;;;;;;9.37;4.63;;;;;;;;;;4982153;28;20277;-75
2021/09/12 04:17:55;;;;;;;8.97;5.00;;;;;;;;;;4980188;28;20687;-76
2021/09/12 04:20:22;;;;;;;9.77;4.80;;;;;;;;;;4981874;28;20237;-75
2021/09/12 04:22:50;;;;;;;11.80;5.13;;;;;;;;;;4980469;28;20202;-75
2021/09/12 04:25:17;;;;;;;8.20;4.60;;;;;;;;;;4978956;28;20233;-75
2021/09/12 04:27:44;;;;;;;15.23;6.00;;;;;;;;;;4975382;28;20217;-75
2021/09/12 04:30:13;;;;;;;11.07;5.13;;;;;;;;;;4980248;28;20212;-75
2021/09/12 04:32:41;;;;;;;7.67;4.93;;;;;;;;;;4980973;28;20209;-75
2021/09/12 04:35:10;;;;;;;10.43;5.13;;;;;;;;;;4978421;28;20614;-75
2021/09/12 04:37:37;;;;;;;16.70;5.53;;;;;;;;;;4979258;28;20205;-75
2021/09/12 04:40:04;;;;;;;8.53;5.10;;;;;;;;;;4981248;28;20331;-75
2021/09/12 04:42:32;;;;;;;11.50;5.03;;;;;;;;;;4975879;28;20216;-75
2021/09/12 04:44:59;;;;;;;8.43;4.57;;;;;;;;;;4978443;28;20735;-75
2021/09/12 04:47:26;;;;;;;7.57;5.07;;;;;;;;;;4983045;28;20212;-75
2021/09/12 04:49:53;;;;;;;13.87;4.83;;;;;;;;;;4976573;28;20217;-75
2021/09/12 04:52:21;;;;;;;8.90;4.80;;;;;;;;;;4981485;28;20220;-76
2021/09/12 04:54:49;;;;;;;9.97;4.90;;;;;;;;;;4985178;28;20241;-75
2021/09/12 04:57:16;;;;;;;12.20;5.40;;;;;;;;;;4978047;28;20219;-76
2021/09/12 04:59:43;;;;;;;14.20;5.60;;;;;;;;;;4979197;28;20225;-76
2021/09/12 05:02:10;;;;;;;9.40;5.60;;;;;;;;;;4981048;28;20581;-76
2021/09/12 05:04:37;;;;;;;7.93;4.90;;;;;;;;;;4983962;28;20691;-75
2021/09/12 05:07:05;;;;;;;9.97;5.07;;;;;;;;;;4976302;28;20209;-75
2021/09/12 05:09:33;;;;;;;9.37;5.77;;;;;;;;;;4978782;28;20328;-75
2021/09/12 05:12:00;;;;;;;12.27;6.03;;;;;;;;;;4976835;28;20205;-76
2021/09/12 05:14:27;;;;;;;9.57;5.27;;;;;;;;;;4973760;28;20241;-74
2021/09/12 05:16:55;;;;;;;9.30;5.13;;;;;;;;;;4979812;28;20237;-75
2021/09/12 05:19:22;;;;;;;12.10;5.23;;;;;;;;;;4975603;28;20226;-75
2021/09/12 05:21:49;;;;;;;9.67;5.70;;;;;;;;;;4974765;28;20235;-74
2021/09/12 05:24:16;;;;;;;10.80;5.53;;;;;;;;;;4972894;28;20240;-74
2021/09/12 05:26:45;;;;;;;13.33;7.00;;;;;;;;;;4975202;28;20296;-76
2021/09/12 05:29:12;;;;;;;11.50;5.80;;;;;;;;;;4972841;28;20213;-74
2021/09/12 05:31:39;;;;;;;12.90;5.73;;;;;;;;;;4970653;28;20216;-74
2021/09/12 05:34:06;;;;;;;10.43;5.73;;;;;;;;;;4972970;28;20232;-74
2021/09/12 05:36:33;;;;;;;13.50;6.40;;;;;;;;;;4973471;28;20663;-74
2021/09/12 05:39:01;;;;;;;12.53;5.90;;;;;;;;;;4976376;28;20202;-74
2021/09/12 05:41:28;;;;;;;8.83;5.07;;;;;;;;;;4977476;28;20213;-74
2021/09/12 05:43:56;;;;;;;11.90;5.67;;;;;;;;;;4972953;28;20215;-74
2021/09/12 05:46:23;;;;;;;13.50;5.87;;;;;;;;;;4976267;28;20219;-74
2021/09/12 05:48:50;;;;;;;10.13;5.53;;;;;;;;;;4973048;28;20300;-74
2021/09/12 05:51:18;;;;;;;11.03;5.03;;;;;;;;;;4973677;28;20205;-74
2021/09/12 05:53:45;;;;;;;15.07;5.93;;;;;;;;;;4972050;28;20213;-74
2021/09/12 05:56:12;;;;;;;11.33;4.90;;;;;;;;;;4974425;28;20204;-74
2021/09/12 05:58:39;;;;;;;10.90;5.17;;;;;;;;;;4973397;28;20229;-74
2021/09/12 06:01:08;;;;;;;7.87;4.23;;;;;;;;;;4971321;28;20230;-74
2021/09/12 06:03:35;;;;;;;9.93;4.20;;;;;;;;;;4974209;28;20220;-74
2021/09/12 06:06:02;;;;;;;8.67;4.10;;;;;;;;;;4971319;28;20243;-74
2021/09/12 06:08:29;;;;;;;8.60;3.73;;;;;;;;;;4974368;28;20209;-74
2021/09/12 06:10:56;;;;;;;6.20;3.53;;;;;;;;;;4976900;28;20229;-75
2021/09/12 06:13:25;;;;;;;7.73;3.00;;;;;;;;;;4972021;28;20692;-75
2021/09/12 06:15:52;;;;;;;8.03;3.57;;;;;;;;;;4974354;28;20288;-74
2021/09/12 06:18:20;;;;;;;5.10;2.93;;;;;;;;;;4976550;28;20210;-74
2021/09/12 06:20:48;;;;;;;8.90;3.23;;;;;;;;;;4975088;28;20224;-75
2021/09/12 06:23:15;;;;;;;8.57;3.57;;;;;;;;;;4976021;28;20209;-74
2021/09/12 06:25:42;;;;;;;6.53;2.97;;;;;;;;;;4975117;28;20303;-75
2021/09/12 06:28:09;;;;;;;7.83;3.33;;;;;;;;;;4974032;28;20239;-75
2021/09/12 06:30:36;;;;;;;6.20;3.33;;;;;;;;;;4972403;28;20198;-75
2021/09/12 06:33:04;;;;;;;7.40;2.87;;;;;;;;;;4974228;28;20313;-75
2021/09/12 06:35:32;;;;;;;6.23;3.27;;;;;;;;;;4976089;28;20234;-75
2021/09/12 06:37:59;;;;;;;5.73;3.20;;;;;;;;;;4973853;28;20202;-74
2021/09/12 06:40:30;;;;;;;3.83;3.20;;;;;;;;;;4972495;28;20742;-74
2021/09/12 06:42:57;;;;;;;8.53;3.57;;;;;;;;;;4972538;28;20220;-74
2021/09/12 06:45:25;;;;;;;11.27;4.10;;;;;;;;;;4974075;28;20233;-75
2021/09/12 06:47:52;;;;;;;5.67;3.33;;;;;;;;;;4976212;28;20220;-74
2021/09/12 06:50:20;;;;;;;8.30;3.97;;;;;;;;;;4974393;28;20211;-75
2021/09/12 06:52:48;;;;;;;6.77;3.70;;;;;;;;;;4977828;28;20650;-75
2021/09/12 06:55:16;;;;;;;7.40;4.10;;;;;;;;;;4971221;28;20316;-75
2021/09/12 06:57:43;;;;;;;12.53;4.20;;;;;;;;;;4973534;28;20301;-74
2021/09/12 07:00:11;;;;;;;12.63;4.80;;;;;;;;;;4978203;28;20228;-74
2021/09/12 07:02:39;;;;;;;8.27;4.90;;;;;;;;;;4970899;28;20272;-74
2021/09/12 07:05:06;;;;;;;7.27;4.83;;;;;;;;;;4970429;28;20609;-75
2021/09/12 07:07:34;;;;;;;8.17;5.10;;;;;;;;;;4973677;28;20218;-74
2021/09/12 07:10:02;;;;;;;13.80;5.70;;;;;;;;;;4972696;28;20288;-74
2021/09/12 07:12:29;;;;;;;12.50;5.27;;;;;;;;;;4971490;28;20758;-75
2021/09/12 07:14:57;;;;;;;9.73;5.57;;;;;;;;;;4971591;28;20239;-75
2021/09/12 07:17:24;;;;;;;10.73;5.97;;;;;;;;;;4972274;28;20209;-75
2021/09/12 07:19:51;;;;;;;10.60;5.67;;;;;;;;;;4973581;28;20312;-75
2021/09/12 07:22:18;;;;;;;12.73;6.37;;;;;;;;;;4970417;28;20210;-75
2021/09/12 07:24:45;;;;;;;12.57;7.27;;;;;;;;;;4973162;28;20232;-74
2021/09/12 07:27:14;;;;;;;13.33;6.97;;;;;;;;;;4973144;28;20276;-75
2021/09/12 07:29:41;;;;;;;15.13;7.70;;;;;;;;;;4973525;28;20300;-75
2021/09/12 07:32:08;;;;;;;13.47;7.97;;;;;;;;;;4972118;28;20206;-74
2021/09/12 07:34:35;;;;;;;14.47;8.33;;;;;;;;;;4970683;28;20315;-75
2021/09/12 07:37:03;;;;;;;16.27;8.37;;;;;;;;;;4973216;28;20759;-75
2021/09/12 07:39:30;;;;;;;16.60;9.07;;;;;;;;;;4976896;28;20308;-75
2021/09/12 07:41:57;;;;;;;13.37;8.33;;;;;;;;;;4973930;28;20239;-75
2021/09/12 07:44:25;;;;;;;18.73;10.30;;;;;;;;;;4977051;28;20319;-75
2021/09/12 07:46:53;;;;;;;13.27;8.13;;;;;;;;;;4973921;28;20775;-75
2021/09/12 07:49:20;;;;;;;17.47;10.10;;;;;;;;;;4977101;28;20209;-75
2021/09/12 07:51:47;;;;;;;19.07;9.83;;;;;;;;;;4977684;28;20197;-75
2021/09/12 07:54:14;;;;;;;14.90;9.07;;;;;;;;;;4974199;28;20239;-75
2021/09/12 07:56:41;;;;;;;16.83;8.73;;;;;;;;;;4978609;28;20211;-75
2021/09/12 07:59:08;;;;;;;14.37;7.43;;;;;;;;;;4978156;28;20652;-76
2021/09/12 08:01:37;;;;;;;12.47;7.43;;;;;;;;;;4973466;28;20271;-76
2021/09/12 08:04:04;;;;;;;10.70;6.47;;;;;;;;;;4977032;28;20312;-76
2021/09/12 08:06:31;;;;;;;11.23;6.10;;;;;;;;;;4974207;28;20223;-76
2021/09/12 08:08:59;;;;;;;12.67;7.77;;;;;;;;;;4977856;28;20213;-76
2021/09/12 08:11:26;;;;;;;11.77;7.07;;;;;;;;;;4980214;28;20288;-76
2021/09/12 08:13:53;;;;;;;11.53;7.47;;;;;;;;;;4926904;28;1094116;-76
2021/09/12 08:16:20;;;;;;;11.33;7.27;;;;;;;;;;4979169;28;20527;-76
2021/09/12 08:18:49;;;;;;;12.10;6.30;;;;;;;;;;4982293;28;20244;-75
2021/09/12 08:21:16;;;;;;;9.50;6.60;;;;;;;;;;4982621;28;20236;-75
2021/09/12 08:23:43;;;;;;;12.00;7.40;;;;;;;;;;4981798;28;20202;-75
2021/09/12 08:26:10;;;;;;;15.70;7.80;;;;;;;;;;4981269;28;20204;-75
2021/09/12 08:28:37;;;;;;;11.40;6.43;;;;;;;;;;4980116;28;20585;-75
2021/09/12 08:31:04;;;;;;;11.47;6.77;;;;;;;;;;4980807;28;20200;-75
2021/09/12 08:33:32;;;;;;;8.23;5.47;;;;;;;;;;4979720;28;20285;-75
2021/09/12 08:36:00;;;;;;;12.67;6.10;;;;;;;;;;4982781;28;20534;-75
2021/09/12 08:38:27;;;;;;;9.37;5.90;;;;;;;;;;4982370;28;20209;-76
2021/09/12 08:40:57;;;;;;;9.30;5.10;;;;;;;;;;4981511;28;20232;-76
2021/09/12 08:43:24;;;;;;;14.80;6.10;;;;;;;;;;4981657;28;20574;-76
2021/09/12 08:45:51;;;;;;;10.87;4.73;;;;;;;;;;4981115;28;20321;-76
2021/09/12 08:48:19;;;;;;;9.20;5.30;;;;;;;;;;4977123;28;20311;-77
2021/09/12 08:50:46;;;;;;;9.90;5.57;;;;;;;;;;4982029;28;20210;-77
2021/09/12 08:53:14;;;;;;;11.33;5.10;;;;;;;;;;4982566;28;20245;-77
2021/09/12 08:55:42;;;;;;;11.33;5.03;;;;;;;;;;4981073;28;20320;-77
2021/09/12 08:58:10;;;;;;;8.53;4.57;;;;;;;;;;4981448;28;20300;-77
2021/09/12 09:00:43;;;;;;;15.97;4.43;;;;;;;;;;4979842;28;20225;-77
2021/09/12 09:03:10;;;;;;;7.33;4.67;;;;;;;;;;4978703;28;20298;-77
2021/09/12 09:05:38;;;;;;;10.60;4.77;;;;;;;;;;4980460;28;20278;-78
2021/09/12 09:08:06;;;;;;;8.83;4.37;;;;;;;;;;4975776;28;20207;-77
2021/09/12 09:10:39;;;;;;;8.67;4.03;;;;;;;;;;4982289;28;20609;-77
2021/09/12 09:15:42;;;;;;;5.97;3.90;;;;;;;;;;4993736;28;20757;-81
2021/09/12 09:18:09;;;;;;;5.13;3.83;;;;;;;;;;4996931;28;20219;-79
2021/09/12 09:20:36;;;;;;;5.33;3.40;;;;;;;;;;4997872;28;20319;-79
2021/09/12 09:23:06;;;;;;;7.67;3.87;;;;;;;;;;4995340;28;20309;-77
2021/09/12 09:25:33;;;;;;;5.30;3.20;;;;;;;;;;4989927;28;20768;-81
2021/09/12 09:28:06;;;;;;;5.97;3.67;;;;;;;;;;4995839;28;20573;-81
2021/09/12 09:30:38;;;;;;;6.17;3.87;;;;;;;;;;4994442;28;20620;-78
2021/09/12 09:33:15;;;;;;;7.37;3.67;;;;;;;;;;4994850;28;20688;-78
2021/09/12 09:35:50;;;;;;;3.97;2.70;;;;;;;;;;4993985;28;20235;-78
2021/09/12 09:38:17;;;;;;;6.97;2.83;;;;;;;;;;4997109;28;20219;-78
2021/09/12 09:40:56;;;;;;;4.00;2.40;;;;;;;;;;4995573;28;20259;-77
2021/09/12 09:43:24;;;;;;;3.60;2.70;;;;;;;;;;5001220;28;20244;-78
2021/09/12 09:45:52;;;;;;;5.43;2.73;;;;;;;;;;4999275;28;20373;-79
2021/09/12 09:48:19;;;;;;;3.27;2.30;;;;;;;;;;4995924;28;20611;-78
2021/09/12 09:50:46;;;;;;;5.40;2.00;;;;;;;;;;4996403;28;20215;-79
2021/09/12 09:53:13;;;;;;;3.47;2.00;;;;;;;;;;4993806;28;20629;-79
2021/09/12 09:55:41;;;;;;;5.07;2.10;;;;;;;;;;4996411;28;20224;-79
2021/09/12 09:58:09;;;;;;;6.73;2.07;;;;;;;;;;4990193;28;20232;-78
2021/09/12 10:00:38;;;;;;;2.63;1.80;;;;;;;;;;4995164;28;20292;-78
2021/09/12 10:03:06;;;;;;;3.47;1.70;;;;;;;;;;4992055;28;20290;-78
2021/09/12 10:05:34;;;;;;;4.00;1.73;;;;;;;;;;4993025;28;20229;-78
2021/09/12 10:08:01;;;;;;;1.93;1.30;;;;;;;;;;4993704;28;20240;-77
2021/09/12 10:10:29;;;;;;;2.20;1.50;;;;;;;;;;4994392;28;20213;-78
2021/09/12 10:12:57;;;;;;;5.23;1.93;;;;;;;;;;4995043;28;20212;-77
2021/09/12 10:15:26;;;;;;;2.93;1.80;;;;;;;;;;4991093;28;20653;-78
2021/09/12 10:17:56;;;;;;;4.67;1.50;;;;;;;;;;4991373;28;20205;-76
2021/09/12 10:20:24;;;;;;;4.23;1.40;;;;;;;;;;4997882;28;20234;-75
2021/09/12 10:22:52;;;;;;;3.33;1.50;;;;;;;;;;4993496;28;20299;-76
2021/09/12 10:25:20;;;;;;;3.67;1.40;;;;;;;;;;4992348;28;20310;-76
2021/09/12 10:27:48;;;;;;;2.83;1.57;;;;;;;;;;4992028;28;20201;-76
2021/09/12 10:30:19;;;;;;;3.53;1.93;;;;;;;;;;4993784;28;20197;-78
2021/09/12 10:32:48;;;;;;;3.00;1.53;;;;;;;;;;4991545;28;20600;-79
2021/09/12 10:35:18;;;;;;;2.80;1.60;;;;;;;;;;4997769;28;20224;-79
2021/09/12 10:38:11;;;;;;;2.90;1.50;;;;;;;;;;4997806;28;20205;-78
2021/09/12 10:40:53;;;;;;;4.00;1.50;;;;;;;;;;4977730;28;20719;-77
2021/09/12 10:43:35;;;;;;;2.87;1.20;;;;;;;;;;4981221;28;20208;-78
2021/09/12 10:46:17;;;;;;;3.87;1.47;;;;;;;;;;5001470;28;20229;-78
2021/09/12 10:48:45;;;;;;;4.23;1.50;;;;;;;;;;4993194;28;20209;-78
2021/09/12 10:51:27;;;;;;;4.67;1.50;;;;;;;;;;4999477;28;20277;-77
2021/09/12 10:54:02;;;;;;;1.90;1.40;;;;;;;;;;4995584;28;20297;-77
2021/09/12 10:56:30;;;;;;;3.60;1.73;;;;;;;;;;4994251;28;20211;-77
2021/09/12 10:58:59;;;;;;;3.53;1.57;;;;;;;;;;4992243;28;20201;-77
2021/09/12 11:01:27;;;;;;;4.07;1.70;;;;;;;;;;4990147;28;20247;-78
2021/09/12 11:03:56;;;;;;;2.70;1.80;;;;;;;;;;4991236;28;20296;-77
2021/09/12 11:06:24;;;;;;;2.70;1.60;;;;;;;;;;4994053;28;20280;-76
2021/09/12 11:08:51;;;;;;;4.53;1.47;;;;;;;;;;4993984;28;20237;-76
2021/09/12 11:11:19;;;;;;;5.03;2.00;;;;;;;;;;4992991;28;20293;-77
2021/09/12 11:13:46;;;;;;;4.13;1.90;;;;;;;;;;4993838;28;20223;-77
2021/09/12 11:16:16;;;;;;;3.97;1.53;;;;;;;;;;4995598;28;20212;-77
2021/09/12 11:18:47;;;;;;;3.30;1.80;;;;;;;;;;4995302;28;20303;-77
2021/09/12 11:21:24;;;;;;;3.73;1.67;;;;;;;;;;4995466;28;20354;-77
2021/09/12 11:23:56;;;;;;;3.07;1.67;;;;;;;;;;4995080;28;20215;-78
2021/09/12 11:26:25;;;;;;;5.20;1.80;;;;;;;;;;4995039;28;20193;-77
2021/09/12 11:29:02;;;;;;;2.77;1.50;;;;;;;;;;4993836;28;20201;-77
2021/09/12 11:31:30;;;;;;;4.33;1.63;;;;;;;;;;4993541;28;20291;-78
2021/09/12 11:33:57;;;;;;;3.83;1.37;;;;;;;;;;4992388;28;20290;-78
2021/09/12 11:36:24;;;;;;;3.93;1.90;;;;;;;;;;4995767;28;20679;-77
2021/09/12 11:38:56;;;;;;;1.90;1.27;;;;;;;;;;4996523;28;20213;-76
2021/09/12 11:41:24;;;;;;;2.97;1.90;;;;;;;;;;4997018;28;20217;-77
2021/09/12 11:43:56;;;;;;;3.30;1.80;;;;;;;;;;4997151;28;20304;-78
2021/09/12 11:46:23;;;;;;;2.87;1.50;;;;;;;;;;4997810;28;20225;-78
2021/09/12 11:48:53;;;;;;;2.83;1.70;;;;;;;;;;4996112;28;20237;-79
2021/09/12 11:51:24;;;;;;;3.97;1.80;;;;;;;;;;4997942;28;20244;-77
2021/09/12 11:54:04;;;;;;;5.23;2.13;;;;;;;;;;4996917;28;20201;-78
2021/09/12 11:56:32;;;;;;;3.10;1.90;;;;;;;;;;4995033;28;20294;-78
2021/09/12 11:59:01;;;;;;;3.70;2.00;;;;;;;;;;4999652;28;20226;-78
2021/09/12 12:01:29;;;;;;;3.30;2.03;;;;;;;;;;4998840;28;20339;-78
2021/09/12 12:03:56;;;;;;;4.33;1.90;;;;;;;;;;4993217;28;20205;-78
2021/09/12 12:06:23;;;;;;;3.77;2.40;;;;;;;;;;4998409;28;20364;-77
2021/09/12 12:09:03;;;;;;;3.30;2.50;;;;;;;;;;4995781;28;21102;-77
2021/09/12 12:11:30;;;;;;;6.20;2.60;;;;;;;;;;4996833;28;20197;-78
2021/09/12 12:13:59;;;;;;;5.40;2.90;;;;;;;;;;4992356;28;20751;-77
2021/09/12 12:16:26;;;;;;;6.13;3.07;;;;;;;;;;4995958;28;20220;-77
2021/09/12 12:19:01;;;;;;;6.03;2.50;;;;;;;;;;4993651;28;20293;-76
2021/09/12 12:21:31;;;;;;;4.67;2.90;;;;;;;;;;4996408;28;20317;-77
2021/09/12 12:23:58;;;;;;;9.50;4.30;;;;;;;;;;4995946;28;20410;-76
2021/09/12 12:26:25;;;;;;;7.37;3.93;;;;;;;;;;5000168;28;20217;-78
2021/09/12 12:29:00;;;;;;;4.13;3.10;;;;;;;;;;4997668;28;20272;-78
2021/09/12 12:31:27;;;;;;;4.20;2.80;;;;;;;;;;4999960;28;20285;-78
2021/09/12 12:33:55;;;;;;;6.97;2.90;;;;;;;;;;4996099;28;20724;-79
2021/09/12 12:36:23;;;;;;;6.07;3.00;;;;;;;;;;4998314;28;20210;-80
2021/09/12 12:38:50;;;;;;;3.27;2.40;;;;;;;;;;4994974;28;20298;-78
2021/09/12 12:41:18;;;;;;;3.53;2.47;;;;;;;;;;4999770;28;20570;-75
2021/09/12 12:43:46;;;;;;;4.53;2.60;;;;;;;;;;4995441;28;20210;-75
2021/09/12 12:46:14;;;;;;;4.93;2.50;;;;;;;;;;4994435;28;20772;-75
2021/09/12 12:48:42;;;;;;;7.17;2.97;;;;;;;;;;4994519;28;20675;-75
2021/09/12 12:51:13;;;;;;;6.93;2.90;;;;;;;;;;4993925;28;20221;-74
2021/09/12 12:53:42;;;;;;;4.90;2.73;;;;;;;;;;4992484;28;20297;-75
2021/09/12 12:56:11;;;;;;;5.63;2.60;;;;;;;;;;4992583;28;20478;-75
2021/09/12 12:58:40;;;;;;;4.60;2.67;;;;;;;;;;4989931;28;20213;-75
2021/09/12 13:01:07;;;;;;;8.10;2.40;;;;;;;;;;4985163;28;20219;-75
2021/09/12 13:03:39;;;;;;;4.27;1.73;;;;;;;;;;4984516;28;21106;-74
2021/09/12 13:06:07;;;;;;;2.30;1.70;;;;;;;;;;4988113;28;20989;-75
2021/09/12 13:08:36;;;;;;;2.83;1.60;;;;;;;;;;4984341;28;20204;-75
2021/09/12 13:11:03;;;;;;;3.73;2.17;;;;;;;;;;4989834;28;20303;-75
2021/09/12 13:13:30;;;;;;;7.03;2.00;;;;;;;;;;4986884;28;20306;-74
2021/09/12 13:15:58;;;;;;;2.53;1.67;;;;;;;;;;4987597;28;20232;-74
2021/09/12 13:18:25;;;;;;;2.77;1.67;;;;;;;;;;4985382;28;20207;-75
2021/09/12 13:20:54;;;;;;;2.53;1.80;;;;;;;;;;4989397;28;20644;-74
2021/09/12 13:23:21;;;;;;;3.20;1.30;;;;;;;;;;4987008;28;20735;-75
2021/09/12 13:25:49;;;;;;;3.40;1.53;;;;;;;;;;4986544;28;20953;-76
2021/09/12 13:28:16;;;;;;;3.93;1.80;;;;;;;;;;4990749;28;20661;-76
2021/09/12 13:30:44;;;;;;;1.80;1.23;;;;;;;;;;4993789;28;20201;-77
2021/09/12 13:33:11;;;;;;;3.63;1.50;;;;;;;;;;4997563;28;20745;-77
2021/09/12 13:35:38;;;;;;;2.43;1.43;;;;;;;;;;4995268;28;20325;-75
2021/09/12 13:38:07;;;;;;;3.83;1.50;;;;;;;;;;4996581;28;20208;-76
2021/09/12 13:40:34;;;;;;;2.27;1.50;;;;;;;;;;4995910;28;20229;-75
2021/09/12 13:43:01;;;;;;;2.73;1.77;;;;;;;;;;4998108;28;20236;-79
2021/09/12 13:45:29;;;;;;;3.63;1.60;;;;;;;;;;4995779;28;20662;-79
2021/09/12 13:47:56;;;;;;;2.90;1.97;;;;;;;;;;4995580;28;20209;-78
2021/09/12 13:50:23;;;;;;;5.50;1.90;;;;;;;;;;4994865;28;20237;-79
2021/09/12 13:52:50;;;;;;;7.57;2.00;;;;;;;;;;4989544;28;22449;-79
2021/09/12 13:55:19;;;;;;;2.47;1.90;;;;;;;;;;4990373;28;20230;-79
2021/09/12 13:57:46;;;;;;;3.90;1.90;;;;;;;;;;4990331;28;20201;-79
2021/09/12 14:00:14;;;;;;;5.83;2.07;;;;;;;;;;4992973;28;20208;-78
2021/09/12 14:02:41;;;;;;;3.93;1.70;;;;;;;;;;4990126;28;20255;-78
2021/09/12 14:05:09;;;;;;;2.40;1.67;;;;;;;;;;4993719;28;20240;-79
2021/09/12 14:07:38;;;;;;;5.70;1.77;;;;;;;;;;4995254;28;20218;-79
2021/09/12 14:10:07;;;;;;;2.50;1.67;;;;;;;;;;4994563;28;20738;-78
2021/09/12 14:12:36;;;;;;;3.60;1.80;;;;;;;;;;4995435;28;20671;-76
2021/09/12 14:15:04;;;;;;;4.70;2.07;;;;;;;;;;5000637;28;20228;-76
2021/09/12 14:17:31;;;;;;;7.50;1.73;;;;;;;;;;4999018;28;20212;-78
2021/09/12 14:19:58;;;;;;;3.73;1.77;;;;;;;;;;4999476;28;20233;-78
2021/09/12 14:22:25;;;;;;;4.10;2.07;;;;;;;;;;4992779;28;20231;-78
2021/09/12 14:24:52;;;;;;;3.10;1.80;;;;;;;;;;4991451;28;20318;-78
2021/09/12 14:27:20;;;;;;;2.40;1.53;;;;;;;;;;4991953;28;20744;-78
2021/09/12 14:29:48;;;;;;;4.30;1.87;;;;;;;;;;4987919;28;20221;-76
2021/09/12 14:32:15;;;;;;;2.43;1.63;;;;;;;;;;4986008;28;20207;-80
2021/09/12 14:34:43;;;;;;;3.47;2.03;;;;;;;;;;4988719;28;20271;-79
2021/09/12 14:37:10;;;;;;;5.07;1.90;;;;;;;;;;4995637;28;20318;-76
2021/09/12 14:39:38;;;;;;;2.67;1.70;;;;;;;;;;4989985;28;20564;-76
2021/09/12 14:42:06;;;;;;;4.23;2.00;;;;;;;;;;4986926;28;20215;-76
2021/09/12 14:44:33;;;;;;;3.73;1.87;;;;;;;;;;4986960;28;20225;-76
2021/09/12 14:47:01;;;;;;;2.60;1.93;;;;;;;;;;4992161;28;20204;-76